Observation data for Northwest San Angelo on 08/13/2019      Previous  Date       Current Mesonet Observations  Soil Data  Daily Summary Page  Observations in Plain Language
KASU 130500Z 14003KT 29/13 A2989 RMK A01 T02880130  RH  039%=      5-min Rain = 0
KASU 130505Z 15003KT 29/13 A2989 RMK A01 T02870130  RH  039%=      5-min Rain = 0
KASU 130510Z 16003KT 29/13 A299 RMK A01 T02890130  RH  039%=      5-min Rain = 0
KASU 130515Z 15004KT 29/13 A299 RMK A01 T02890130  RH  039%=      5-min Rain = 0
KASU 130520Z 15004KT 29/13 A299 RMK A01 T02880130  RH  039%=      5-min Rain = 0
KASU 130525Z 16004KT 29/13 A299 RMK A01 T02890129  RH  039%=      5-min Rain = 0
KASU 130530Z 16004KT 29/13 A299 RMK A01 T02890129  RH  039%=      5-min Rain = 0
KASU 130535Z 16004KT 29/13 A299 RMK A01 T02890129  RH  039%=      5-min Rain = 0
KASU 130540Z 17004KT 29/13 A299 RMK A01 T02880129  RH  039%=      5-min Rain = 0
KASU 130545Z 17004KT 29/13 A299 RMK A01 T02890129  RH  039%=      5-min Rain = 0
KASU 130550Z 16004KT 29/13 A299 RMK A01 T02890130  RH  039%=      5-min Rain = 0
KASU 130555Z 15004KT 29/13 A299 RMK A01 T02860132  RH  040%=      5-min Rain = 0
KASU 130600Z 15004KT 28/13 A299 RMK A01 T02820134  RH  042%=      5-min Rain = 0
KASU 130605Z 15004KT 28/14 A299 RMK A01 T02810135  RH  042%=      5-min Rain = 0
KASU 130610Z 15004KT 28/14 A299 RMK A01 T02820136  RH  042%=      5-min Rain = 0
KASU 130615Z 14004KT 28/14 A299 RMK A01 T02820138  RH  043%=      5-min Rain = 0
KASU 130620Z 14005KT 28/14 A299 RMK A01 T02820139  RH  043%=      5-min Rain = 0
KASU 130625Z 14005KT 28/14 A299 RMK A01 T02810141  RH  044%=      5-min Rain = 0
KASU 130630Z 14005KT 28/14 A299 RMK A01 T02810142  RH  044%=      5-min Rain = 0
KASU 130635Z 14005KT 28/14 A2989 RMK A01 T02810144  RH  045%=      5-min Rain = 0
KASU 130640Z 14005KT 28/15 A2989 RMK A01 T02810145  RH  045%=      5-min Rain = 0
KASU 130645Z 14005KT 28/15 A2989 RMK A01 T02800146  RH  046%=      5-min Rain = 0
KASU 130650Z 14005KT 28/15 A2989 RMK A01 T02800147  RH  046%=      5-min Rain = 0
KASU 130655Z 14005KT 28/15 A2989 RMK A01 T02790148  RH  047%=      5-min Rain = 0
KASU 130700Z 14005KT 28/15 A2989 RMK A01 T02790149  RH  047%=      5-min Rain = 0
KASU 130705Z 15006KT 28/15 A2989 RMK A01 T02790149  RH  047%=      5-min Rain = 0
KASU 130710Z 15005KT 28/15 A2989 RMK A01 T02800149  RH  047%=      5-min Rain = 0
KASU 130715Z 15005KT 28/15 A2989 RMK A01 T02800150  RH  047%=      5-min Rain = 0
KASU 130720Z 16004KT 28/15 A2989 RMK A01 T02800150  RH  047%=      5-min Rain = 0
KASU 130725Z 16004KT 28/15 A2989 RMK A01 T02790150  RH  047%=      5-min Rain = 0
KASU 130730Z 15004KT 28/15 A2989 RMK A01 T02790151  RH  048%=      5-min Rain = 0
KASU 130735Z 15005KT 28/15 A2989 RMK A01 T02770151  RH  048%=      5-min Rain = 0
KASU 130740Z 16005KT 28/15 A2989 RMK A01 T02760151  RH  049%=      5-min Rain = 0
KASU 130745Z 16005KT 28/15 A2989 RMK A01 T02760152  RH  049%=      5-min Rain = 0
KASU 130750Z 16005KT 28/15 A2989 RMK A01 T02750152  RH  049%=      5-min Rain = 0
KASU 130755Z 16005KT 28/15 A2989 RMK A01 T02760151  RH  049%=      5-min Rain = 0
KASU 130800Z 16005KT 28/15 A2989 RMK A01 T02770150  RH  048%=      5-min Rain = 0
KASU 130805Z 16005KT 28/15 A2989 RMK A01 T02780150  RH  048%=      5-min Rain = 0
KASU 130810Z 15005KT 28/15 A2989 RMK A01 T02780151  RH  048%=      5-min Rain = 0
KASU 130815Z 15006KT 28/15 A2989 RMK A01 T02770151  RH  048%=      5-min Rain = 0
KASU 130820Z 16005KT 28/15 A2988 RMK A01 T02780151  RH  048%=      5-min Rain = 0
KASU 130825Z 16005KT 28/15 A2989 RMK A01 T02800152  RH  048%=      5-min Rain = 0
KASU 130830Z 16005KT 28/15 A2989 RMK A01 T02810153  RH  048%=      5-min Rain = 0
KASU 130835Z 16005KT 28/15 A2989 RMK A01 T02810154  RH  048%=      5-min Rain = 0
KASU 130840Z 16006KT 28/16 A2989 RMK A01 T02800156  RH  049%=      5-min Rain = 0
KASU 130845Z 16005KT 28/16 A2989 RMK A01 T02810157  RH  049%=      5-min Rain = 0
KASU 130850Z 17004KT 28/16 A2989 RMK A01 T02800158  RH  050%=      5-min Rain = 0
KASU 130855Z 17003KT 28/16 A2989 RMK A01 T02780159  RH  051%=      5-min Rain = 0
KASU 130900Z 16003KT 28/16 A2989 RMK A01 T02770160  RH  051%=      5-min Rain = 0
KASU 130905Z 17003KT 27/16 A2989 RMK A01 T02740161  RH  053%=      5-min Rain = 0
KASU 130910Z 18002KT 27/16 A2989 RMK A01 T02720159  RH  052%=      5-min Rain = 0
KASU 130915Z 17002KT 27/16 A2989 RMK A01 T02710160  RH  053%=      5-min Rain = 0
KASU 130920Z 19002KT 27/16 A2989 RMK A01 T02700161  RH  054%=      5-min Rain = 0
KASU 130925Z 18005KT 27/17 A2989 RMK A01 T02720165  RH  055%=      5-min Rain = 0
KASU 130930Z 18007KT 28/17 A2989 RMK A01 T02770169  RH  054%=      5-min Rain = 0
KASU 130935Z 18009G15KT 28/17 A2989 RMK A01 T02800173  RH  055%=      5-min Rain = 0
KASU 130940Z 17010KT 28/18 A2989 RMK A01 T02820176  RH  055%=      5-min Rain = 0
KASU 130945Z 17007KT 28/18 A2989 RMK A01 T02810177  RH  056%=      5-min Rain = 0
KASU 130950Z 17007KT 28/18 A299 RMK A01 T02800177  RH  056%=      5-min Rain = 0
KASU 130955Z 18007KT 28/18 A299 RMK A01 T02790178  RH  057%=      5-min Rain = 0
KASU 131000Z 17008KT 28/18 A299 RMK A01 T02790180  RH  058%=      5-min Rain = 0
KASU 131005Z 18007KT 28/18 A299 RMK A01 T02790180  RH  058%=      5-min Rain = 0
KASU 131010Z 18008KT 28/18 A299 RMK A01 T02790181  RH  058%=      5-min Rain = 0
KASU 131015Z 18006KT 28/18 A299 RMK A01 T02790181  RH  059%=      5-min Rain = 0
KASU 131020Z 18005KT 28/18 A299 RMK A01 T02760181  RH  059%=      5-min Rain = 0
KASU 131025Z 18006KT 27/18 A299 RMK A01 T02740182  RH  060%=      5-min Rain = 0
KASU 131030Z 18006KT 27/18 A299 RMK A01 T02730182  RH  061%=      5-min Rain = 0
KASU 131035Z 18006KT 27/18 A299 RMK A01 T02730182  RH  061%=      5-min Rain = 0
KASU 131040Z 18006KT 27/18 A299 RMK A01 T02720183  RH  061%=      5-min Rain = 0
KASU 131045Z 17005KT 27/18 A299 RMK A01 T02720183  RH  061%=      5-min Rain = 0
KASU 131050Z 17005KT 27/18 A299 RMK A01 T02700183  RH  062%=      5-min Rain = 0
KASU 131055Z 18005KT 27/18 A299 RMK A01 T02690183  RH  063%=      5-min Rain = 0
KASU 131100Z 17004KT 27/18 A299 RMK A01 T02670183  RH  063%=      5-min Rain = 0
KASU 131105Z 16004KT 27/18 A299 RMK A01 T02660183  RH  064%=      5-min Rain = 0
KASU 131110Z 16004KT 27/18 A299 RMK A01 T02650183  RH  064%=      5-min Rain = 0
KASU 131115Z 17004KT 26/18 A299 RMK A01 T02640184  RH  065%=      5-min Rain = 0
KASU 131120Z 17004KT 26/18 A299 RMK A01 T02640184  RH  065%=      5-min Rain = 0
KASU 131125Z 17004KT 26/18 A299 RMK A01 T02630184  RH  065%=      5-min Rain = 0
KASU 131130Z 18004KT 26/18 A299 RMK A01 T02610183  RH  066%=      5-min Rain = 0
KASU 131135Z 17005KT 26/18 A299 RMK A01 T02620184  RH  066%=      5-min Rain = 0
KASU 131140Z 18005KT 26/18 A2991 RMK A01 T02620184  RH  066%=      5-min Rain = 0
KASU 131145Z 18004KT 26/18 A2991 RMK A01 T02620184  RH  066%=      5-min Rain = 0
KASU 131150Z 19003KT 26/18 A2991 RMK A01 T02600184  RH  066%=      5-min Rain = 0
KASU 131155Z 20002KT 26/18 A2991 RMK A01 T02600182  RH  065%=      5-min Rain = 0
KASU 131200Z 19002KT 26/18 A2991 RMK A01 T02600181  RH  065%=      5-min Rain = 0
KASU 131205Z 20002KT 26/18 A2991 RMK A01 T02590182  RH  066%=      5-min Rain = 0
KASU 131210Z 20001KT 26/18 A2992 RMK A01 T02580181  RH  066%=      5-min Rain = 0
KASU 131215Z 18001KT 26/18 A2992 RMK A01 T02570182  RH  066%=      5-min Rain = 0
KASU 131220Z 21001KT 26/18 A2992 RMK A01 T02560183  RH  067%=      5-min Rain = 0
KASU 131225Z 22001KT 26/18 A2992 RMK A01 T02560182  RH  067%=      5-min Rain = 0
KASU 131230Z 19001KT 26/18 A2992 RMK A01 T02560181  RH  066%=      5-min Rain = 0
KASU 131235Z 16002KT 26/18 A2992 RMK A01 T02580184  RH  067%=      5-min Rain = 0
KASU 131240Z 15002KT 26/18 A2992 RMK A01 T02560182  RH  067%=      5-min Rain = 0
KASU 131245Z 10002KT 26/18 A2992 RMK A01 T02550183  RH  068%=      5-min Rain = 0
KASU 131250Z 08002KT 26/19 A2992 RMK A01 T02550185  RH  069%=      5-min Rain = 0
KASU 131255Z 08002KT 26/19 A2992 RMK A01 T02600189  RH  068%=      5-min Rain = 0
KASU 131300Z 09002KT 27/19 A2993 RMK A01 T02650189  RH  066%=      5-min Rain = 0
KASU 131305Z 09002KT 27/19 A2993 RMK A01 T02700190  RH  065%=      5-min Rain = 0
KASU 131310Z 09002KT 28/19 A2993 RMK A01 T02750190  RH  063%=      5-min Rain = 0
KASU 131315Z 11001KT 28/19 A2993 RMK A01 T02800189  RH  061%=      5-min Rain = 0
KASU 131320Z 15002KT 29/19 A2993 RMK A01 T02850187  RH  058%=      5-min Rain = 0
KASU 131325Z 16003KT 29/19 A2993 RMK A01 T02870186  RH  057%=      5-min Rain = 0
KASU 131330Z 17003KT 29/19 A2993 RMK A01 T02860185  RH  057%=      5-min Rain = 0
KASU 131335Z 17003KT 29/19 A2994 RMK A01 T02880187  RH  057%=      5-min Rain = 0
KASU 131340Z 17004KT 29/19 A2994 RMK A01 T02890185  RH  056%=      5-min Rain = 0
KASU 131345Z 18003KT 29/19 A2994 RMK A01 T02880185  RH  057%=      5-min Rain = 0
KASU 131350Z 18004KT 29/18 A2994 RMK A01 T02890184  RH  056%=      5-min Rain = 0
KASU 131355Z 18004KT 29/18 A2994 RMK A01 T02910183  RH  055%=      5-min Rain = 0
KASU 131400Z 18006KT 29/18 A2994 RMK A01 T02920184  RH  055%=      5-min Rain = 0
KASU 131405Z 17007KT 29/18 A2994 RMK A01 T02930180  RH  054%=      5-min Rain = 0
KASU 131410Z 18007KT 29/18 A2994 RMK A01 T02940179  RH  053%=      5-min Rain = 0
KASU 131415Z 18006KT 30/18 A2994 RMK A01 T02960180  RH  052%=      5-min Rain = 0
KASU 131420Z 18008KT 30/18 A2994 RMK A01 T03010180  RH  051%=      5-min Rain = 0
KASU 131425Z 17005KT 30/18 A2994 RMK A01 T03010179  RH  051%=      5-min Rain = 0
KASU 131430Z 16006KT 30/18 A2995 RMK A01 T03030179  RH  050%=      5-min Rain = 0
KASU 131435Z 18006KT 30/18 A2995 RMK A01 T03040180  RH  050%=      5-min Rain = 0
KASU 131440Z 14005KT 31/18 A2995 RMK A01 T03090181  RH  049%=      5-min Rain = 0
KASU 131445Z 15006KT 31/18 A2995 RMK A01 T03090180  RH  049%=      5-min Rain = 0
KASU 131450Z 16005KT 31/18 A2995 RMK A01 T03110180  RH  048%=      5-min Rain = 0
KASU 131455Z 13006KT 31/18 A2995 RMK A01 T03120179  RH  047%=      5-min Rain = 0
KASU 131500Z 14005KT 32/18 A2995 RMK A01 T03150179  RH  047%=      5-min Rain = 0
KASU 131505Z 13006KT 31/18 A2995 RMK A01 T03140178  RH  046%=      5-min Rain = 0
KASU 131510Z 11004KT 32/18 A2996 RMK A01 T03170179  RH  046%=      5-min Rain = 0
KASU 131515Z 09004KT 31/18 A2997 RMK A01 T03110177  RH  047%=      5-min Rain = 0
KASU 131520Z 12004KT 31/18 A2997 RMK A01 T03080175  RH  048%=      5-min Rain = 0
KASU 131525Z 12005KT 31/18 A2997 RMK A01 T03090175  RH  047%=      5-min Rain = 0
KASU 131530Z 12006KT 31/18 A2997 RMK A01 T03120175  RH  046%=      5-min Rain = 0
KASU 131535Z 12005KT 32/18 A2997 RMK A01 T03210177  RH  045%=      5-min Rain = 0
KASU 131540Z 13005KT 33/18 A2997 RMK A01 T03260176  RH  043%=      5-min Rain = 0
KASU 131545Z 13006KT 33/17 A2996 RMK A01 T03260174  RH  042%=      5-min Rain = 0
KASU 131550Z 14006KT 33/17 A2997 RMK A01 T03250173  RH  043%=      5-min Rain = 0
KASU 131555Z 11005KT 33/17 A2997 RMK A01 T03280173  RH  042%=      5-min Rain = 0
KASU 131600Z 12005KT 33/17 A2997 RMK A01 T03250172  RH  042%=      5-min Rain = 0
KASU 131605Z 11006KT 33/17 A2997 RMK A01 T03250171  RH  042%=      5-min Rain = 0
KASU 131610Z 09005G10KT 33/17 A2997 RMK A01 T03250171  RH  042%=      5-min Rain = 0
KASU 131615Z 10005KT 33/17 A2997 RMK A01 T03300173  RH  041%=      5-min Rain = 0
KASU 131620Z 17005KT 33/17 A2997 RMK A01 T03320168  RH  039%=      5-min Rain = 0
KASU 131625Z 13003KT 34/17 A2997 RMK A01 T03370169  RH  039%=      5-min Rain = 0
KASU 131630Z 13005KT 34/17 A2997 RMK A01 T03400169  RH  038%=      5-min Rain = 0
KASU 131635Z 15006G11KT 34/17 A2997 RMK A01 T03400167  RH  038%=      5-min Rain = 0
KASU 131640Z 13005KT 34/17 A2997 RMK A01 T03400167  RH  038%=      5-min Rain = 0
KASU 131645Z 09004G9KT 34/17 A2997 RMK A01 T03430168  RH  037%=      5-min Rain = 0
KASU 131650Z 07004KT 34/17 A2997 RMK A01 T03430167  RH  037%=      5-min Rain = 0
KASU 131655Z 14006KT 35/17 A2997 RMK A01 T03470167  RH  036%=      5-min Rain = 0
KASU 131700Z 14005KT 35/17 A2997 RMK A01 T03460166  RH  036%=      5-min Rain = 0
KASU 131705Z 11006KT 35/17 A2997 RMK A01 T03500167  RH  035%=      5-min Rain = 0
KASU 131710Z 11006KT 35/17 A2997 RMK A01 T03480166  RH  036%=      5-min Rain = 0
KASU 131715Z 13003KT 35/16 A2997 RMK A01 T03500164  RH  035%=      5-min Rain = 0
KASU 131720Z 19003G8KT 35/16 A2997 RMK A01 T03500163  RH  035%=      5-min Rain = 0
KASU 131725Z 17005G10KT 35/16 A2997 RMK A01 T03540163  RH  034%=      5-min Rain = 0
KASU 131730Z 12003KT 36/16 A2997 RMK A01 T03570163  RH  033%=      5-min Rain = 0
KASU 131735Z 16005KT 36/16 A2997 RMK A01 T03570162  RH  033%=      5-min Rain = 0
KASU 131740Z 16006KT 36/17 A2997 RMK A01 T03600165  RH  033%=      5-min Rain = 0
KASU 131745Z 10005G12KT 36/16 A2996 RMK A01 T03560162  RH  033%=      5-min Rain = 0
KASU 131750Z 11004G10KT 36/16 A2996 RMK A01 T03570160  RH  033%=      5-min Rain = 0
KASU 131755Z 15004G10KT 36/16 A2996 RMK A01 T03610162  RH  032%=      5-min Rain = 0
KASU 131800Z 14005G12KT 36/16 A2996 RMK A01 T03640162  RH  032%=      5-min Rain = 0
KASU 131805Z 14004KT 37/16 A2996 RMK A01 T03650160  RH  031%=      5-min Rain = 0
KASU 131810Z 20003G9KT 37/16 A2995 RMK A01 T03650158  RH  031%=      5-min Rain = 0
KASU 131815Z 14008KT 37/16 A2995 RMK A01 T03670159  RH  031%=      5-min Rain = 0
KASU 131820Z 17005G10KT 37/16 A2995 RMK A01 T03670158  RH  030%=      5-min Rain = 0
KASU 131825Z 13006KT 37/16 A2995 RMK A01 T03700158  RH  030%=      5-min Rain = 0
KASU 131830Z 13006G11KT 37/16 A2995 RMK A01 T03720156  RH  029%=      5-min Rain = 0
KASU 131835Z 09003KT 37/15 A2995 RMK A01 T03710154  RH  029%=      5-min Rain = 0
KASU 131840Z 10004KT 38/15 A2995 RMK A01 T03750152  RH  028%=      5-min Rain = 0
KASU 131845Z 13005KT 38/15 A2994 RMK A01 T03800153  RH  027%=      5-min Rain = 0
KASU 131850Z 16007KT 38/15 A2994 RMK A01 T03810152  RH  027%=      5-min Rain = 0
KASU 131855Z 13004KT 38/15 A2994 RMK A01 T03760148  RH  027%=      5-min Rain = 0
KASU 131900Z 12002KT 38/15 A2994 RMK A01 T03790146  RH  026%=      5-min Rain = 0
KASU 131905Z 16004KT 38/15 A2994 RMK A01 T03820146  RH  026%=      5-min Rain = 0
KASU 131910Z 16003KT 38/14 A2994 RMK A01 T03840144  RH  025%=      5-min Rain = 0
KASU 131915Z 16006KT 39/15 A2994 RMK A01 T03860146  RH  025%=      5-min Rain = 0
KASU 131920Z 16005KT 39/15 A2994 RMK A01 T03870147  RH  025%=      5-min Rain = 0
KASU 131925Z 10002KT 39/14 A2994 RMK A01 T03880144  RH  025%=      5-min Rain = 0
KASU 131930Z 17004KT 39/15 A2993 RMK A01 T03940146  RH  024%=      5-min Rain = 0
KASU 131935Z 11006G13KT 39/15 A2993 RMK A01 T03900145  RH  025%=      5-min Rain = 0
KASU 131940Z 11007KT 39/15 A2993 RMK A01 T03880145  RH  025%=      5-min Rain = 0
KASU 131945Z 10005KT 39/15 A2993 RMK A01 T03920145  RH  024%=      5-min Rain = 0
KASU 131950Z 12008G13KT 39/14 A2993 RMK A01 T03880142  RH  024%=      5-min Rain = 0
KASU 131955Z 13006G11KT 39/14 A2993 RMK A01 T03940143  RH  024%=      5-min Rain = 0
KASU 132000Z 11008KT 39/14 A2992 RMK A01 T03910140  RH  024%=      5-min Rain = 0
KASU 132005Z 13006G11KT 39/14 A2992 RMK A01 T03910140  RH  024%=      5-min Rain = 0
KASU 132010Z 11009KT 40/14 A2992 RMK A01 T03960140  RH  023%=      5-min Rain = 0
KASU 132015Z 11007G12KT 39/14 A2992 RMK A01 T03910138  RH  023%=      5-min Rain = 0
KASU 132020Z 07006G11KT 39/14 A2992 RMK A01 T03880138  RH  024%=      5-min Rain = 0
KASU 132025Z 08009KT 39/14 A2992 RMK A01 T03900140  RH  024%=      5-min Rain = 0
KASU 132030Z 07007G15KT 39/14 A2991 RMK A01 T03920139  RH  023%=      5-min Rain = 0
KASU 132035Z 09010G17KT 39/14 A2991 RMK A01 T03930136  RH  023%=      5-min Rain = 0
KASU 132040Z 10006G12KT 39/13 A2991 RMK A01 T03900133  RH  023%=      5-min Rain = 0
KASU 132045Z 10009G14KT 39/13 A2991 RMK A01 T03930134  RH  023%=      5-min Rain = 0
KASU 132050Z 08009KT 39/13 A299 RMK A01 T03860133  RH  023%=      5-min Rain = 0
KASU 132055Z 07009G15KT 39/13 A299 RMK A01 T03900132  RH  023%=      5-min Rain = 0
KASU 132100Z 09007G15KT 39/13 A299 RMK A01 T03920131  RH  022%=      5-min Rain = 0
KASU 132105Z 11008KT 39/13 A299 RMK A01 T03930130  RH  022%=      5-min Rain = 0
KASU 132110Z 09010KT 39/13 A299 RMK A01 T03940127  RH  021%=      5-min Rain = 0
KASU 132115Z 11007G12KT 39/13 A2989 RMK A01 T03910127  RH  022%=      5-min Rain = 0
KASU 132120Z 08007KT 40/13 A2989 RMK A01 T03960128  RH  021%=      5-min Rain = 0
KASU 132125Z 10006KT 40/13 A2989 RMK A01 T03950127  RH  021%=      5-min Rain = 0
KASU 132130Z 09007KT 39/13 A2989 RMK A01 T03940129  RH  022%=      5-min Rain = 0
KASU 132135Z 10009G14KT 40/13 A2988 RMK A01 T03950131  RH  022%=      5-min Rain = 0
KASU 132140Z 10008G14KT 40/13 A2988 RMK A01 T03950130  RH  022%=      5-min Rain = 0
KASU 132145Z 12009G14KT 40/13 A2988 RMK A01 T03960127  RH  021%=      5-min Rain = 0
KASU 132150Z 08009G15KT 40/13 A2988 RMK A01 T03950128  RH  021%=      5-min Rain = 0
KASU 132155Z 07010KT 40/13 A2988 RMK A01 T03950128  RH  021%=      5-min Rain = 0
KASU 132200Z 07006KT 39/13 A2988 RMK A01 T03930125  RH  021%=      5-min Rain = 0
KASU 132205Z 13008G14KT 39/12 A2988 RMK A01 T03930124  RH  021%=      5-min Rain = 0
KASU 132210Z 10009KT 39/12 A2988 RMK A01 T03850124  RH  022%=      5-min Rain = 0
KASU 132215Z 11007KT 38/12 A2988 RMK A01 T03790123  RH  023%=      5-min Rain = 0
KASU 132220Z 12003KT 38/12 A2988 RMK A01 T03760123  RH  023%=      5-min Rain = 0
KASU 132225Z 11004KT 38/13 A2988 RMK A01 T03760126  RH  023%=      5-min Rain = 0
KASU 132230Z 10009KT 37/13 A2988 RMK A01 T03740129  RH  024%=      5-min Rain = 0
KASU 132235Z 08008KT 37/13 A2988 RMK A01 T03730131  RH  025%=      5-min Rain = 0
KASU 132240Z 09010KT 37/13 A2987 RMK A01 T03720129  RH  024%=      5-min Rain = 0
KASU 132245Z 09008KT 37/13 A2988 RMK A01 T03720128  RH  024%=      5-min Rain = 0
KASU 132250Z 10006KT 37/13 A2988 RMK A01 T03710129  RH  024%=      5-min Rain = 0
KASU 132255Z 09007KT 37/13 A2988 RMK A01 T03700128  RH  025%=      5-min Rain = 0
KASU 132300Z 10007KT 37/13 A2988 RMK A01 T03690128  RH  025%=      5-min Rain = 0
KASU 132305Z 11005KT 37/13 A2989 RMK A01 T03680127  RH  025%=      5-min Rain = 0
KASU 132310Z 11004KT 37/13 A2989 RMK A01 T03660129  RH  025%=      5-min Rain = 0
KASU 132315Z 10004KT 36/13 A2989 RMK A01 T03640132  RH  026%=      5-min Rain = 0
KASU 132320Z 11005KT 36/13 A2989 RMK A01 T03620131  RH  026%=      5-min Rain = 0
KASU 132325Z 10007KT 36/13 A2989 RMK A01 T03630128  RH  025%=      5-min Rain = 0
KASU 132330Z 09005KT 36/13 A2989 RMK A01 T03630127  RH  025%=      5-min Rain = 0
KASU 132335Z 09004KT 36/13 A2989 RMK A01 T03610129  RH  026%=      5-min Rain = 0
KASU 132340Z 09004KT 36/13 A2989 RMK A01 T03580133  RH  027%=      5-min Rain = 0
KASU 132345Z 09004KT 36/14 A2989 RMK A01 T03550135  RH  028%=      5-min Rain = 0
KASU 132350Z 10003KT 35/14 A2989 RMK A01 T03530137  RH  029%=      5-min Rain = 0
KASU 132355Z 10004KT 35/14 A2989 RMK A01 T03500139  RH  029%=      5-min Rain = 0
KASU 140000Z 10004KT 35/14 A2989 RMK A01 T03500137  RH  029%=      5-min Rain = 0
KASU 140005Z 09004KT 35/14 A2989 RMK A01 T03490139  RH  029%=      5-min Rain = 0
KASU 140010Z 09004KT 35/14 A2989 RMK A01 T03460141  RH  030%=      5-min Rain = 0
KASU 140015Z 06004KT 34/14 A2989 RMK A01 T03440140  RH  031%=      5-min Rain = 0
KASU 140020Z 05003KT 34/14 A2989 RMK A01 T03440139  RH  030%=      5-min Rain = 0
KASU 140025Z 06003KT 35/14 A2989 RMK A01 T03450140  RH  030%=      5-min Rain = 0
KASU 140030Z 05002KT 34/14 A299 RMK A01 T03440139  RH  030%=      5-min Rain = 0
KASU 140035Z 03002KT 35/14 A299 RMK A01 T03450138  RH  030%=      5-min Rain = 0
KASU 140040Z 35002KT 35/14 A299 RMK A01 T03470139  RH  030%=      5-min Rain = 0
KASU 140045Z 32002KT 35/14 A299 RMK A01 T03470137  RH  030%=      5-min Rain = 0
KASU 140050Z 25004KT 35/14 A299 RMK A01 T03470140  RH  030%=      5-min Rain = 0
KASU 140055Z 25006KT 34/14 A299 RMK A01 T03410142  RH  032%=      5-min Rain = 0
KASU 140100Z 26004KT 34/14 A2989 RMK A01 T03430142  RH  031%=      5-min Rain = 0
KASU 140105Z 28001KT 34/14 A299 RMK A01 T03440142  RH  031%=      5-min Rain = 0
KASU 140110Z 18001KT 34/14 A299 RMK A01 T03440140  RH  031%=      5-min Rain = 0
KASU 140115Z 19006G12KT 35/14 A299 RMK A01 T03460140  RH  030%=      5-min Rain = 0
KASU 140120Z 21006KT 33/15 A299 RMK A01 T03320151  RH  035%=      5-min Rain = 0
KASU 140125Z 21007KT 33/16 A299 RMK A01 T03250157  RH  038%=      5-min Rain = 0
KASU 140130Z 23005KT 32/16 A299 RMK A01 T03210159  RH  040%=      5-min Rain = 0
KASU 140135Z 23003KT 32/16 A299 RMK A01 T03190160  RH  040%=      5-min Rain = 0
KASU 140140Z 22002KT 32/16 A299 RMK A01 T03170161  RH  041%=      5-min Rain = 0
KASU 140145Z 25002KT 32/16 A299 RMK A01 T03150162  RH  042%=      5-min Rain = 0
KASU 140150Z 26003KT 31/16 A299 RMK A01 T03130163  RH  042%=      5-min Rain = 0
KASU 140155Z 24003KT 31/17 A2991 RMK A01 T03100165  RH  044%=      5-min Rain = 0
KASU 140200Z 24003KT 31/17 A2991 RMK A01 T03090166  RH  044%=      5-min Rain = 0
KASU 140205Z 26003KT 31/17 A2992 RMK A01 T03080166  RH  045%=      5-min Rain = 0
KASU 140210Z 26002KT 31/17 A2992 RMK A01 T03070166  RH  045%=      5-min Rain = 0
KASU 140215Z 29002KT 31/17 A2992 RMK A01 T03060167  RH  045%=      5-min Rain = 0
KASU 140220Z 29003KT 31/17 A2993 RMK A01 T03060166  RH  045%=      5-min Rain = 0
KASU 140225Z 29004KT 31/17 A2993 RMK A01 T03060165  RH  045%=      5-min Rain = 0
KASU 140230Z 30004KT 31/17 A2993 RMK A01 T03050165  RH  045%=      5-min Rain = 0
KASU 140235Z 29003KT 31/16 A2993 RMK A01 T03050163  RH  045%=      5-min Rain = 0
KASU 140240Z 30001KT 30/16 A2994 RMK A01 T03040164  RH  045%=      5-min Rain = 0
KASU 140245Z 31002KT 30/16 A2994 RMK A01 T03010164  RH  046%=      5-min Rain = 0
KASU 140250Z 30004KT 30/16 A2994 RMK A01 T03010160  RH  045%=      5-min Rain = 0
KASU 140255Z 30005KT 30/16 A2994 RMK A01 T03020160  RH  044%=      5-min Rain = 0
KASU 140300Z 30004KT 30/16 A2994 RMK A01 T03030161  RH  044%=      5-min Rain = 0
KASU 140305Z 30004KT 30/16 A2994 RMK A01 T03030161  RH  044%=      5-min Rain = 0
KASU 140310Z 29004KT 30/16 A2994 RMK A01 T03020160  RH  044%=      5-min Rain = 0
KASU 140315Z 28003KT 30/16 A2995 RMK A01 T03020160  RH  044%=      5-min Rain = 0
KASU 140320Z 29003KT 30/16 A2995 RMK A01 T03010160  RH  044%=      5-min Rain = 0
KASU 140325Z 30004KT 30/16 A2995 RMK A01 T03000160  RH  045%=      5-min Rain = 0
KASU 140330Z 31004KT 30/16 A2995 RMK A01 T02980159  RH  045%=      5-min Rain = 0
KASU 140335Z 31004KT 29/16 A2995 RMK A01 T02940160  RH  046%=      5-min Rain = 0
KASU 140340Z 30005KT 29/16 A2996 RMK A01 T02940163  RH  047%=      5-min Rain = 0
KASU 140345Z 31007KT 29/16 A2996 RMK A01 T02940163  RH  048%=      5-min Rain = 0
KASU 140350Z 31006KT 29/16 A2996 RMK A01 T02920164  RH  048%=      5-min Rain = 0
KASU 140355Z 31005KT 29/16 A2996 RMK A01 T02910164  RH  049%=      5-min Rain = 0
KASU 140400Z 31005KT 29/16 A2996 RMK A01 T02890164  RH  049%=      5-min Rain = 0
KASU 140405Z 30005KT 29/16 A2996 RMK A01 T02880164  RH  049%=      5-min Rain = 0
KASU 140410Z 31005KT 29/16 A2996 RMK A01 T02870162  RH  049%=      5-min Rain = 0
KASU 140415Z 31005KT 29/16 A2996 RMK A01 T02880161  RH  048%=      5-min Rain = 0
KASU 140420Z 31005KT 29/16 A2997 RMK A01 T02870160  RH  048%=      5-min Rain = 0
KASU 140425Z 31005KT 29/16 A2997 RMK A01 T02850159  RH  049%=      5-min Rain = 0
KASU 140430Z 30004KT 29/16 A2997 RMK A01 T02870158  RH  048%=      5-min Rain = 0
KASU 140435Z 30003KT 29/16 A2997 RMK A01 T02870159  RH  048%=      5-min Rain = 0
KASU 140440Z 22002KT 29/16 A2997 RMK A01 T02870160  RH  048%=      5-min Rain = 0
KASU 140445Z 20002KT 28/16 A2996 RMK A01 T02810160  RH  050%=      5-min Rain = 0
KASU 140450Z 19005KT 28/16 A2997 RMK A01 T02790162  RH  051%=      5-min Rain = 0
KASU 140455Z 20005KT 27/17 A2997 RMK A01 T02740168  RH  055%=      5-min Rain = 0

Page generated in 0.0164 seconds.